createdAt,value
2018-07-03T00:00:53.610Z,16.40
2018-07-03T00:03:27.416Z,16.40
2018-07-03T00:05:58.166Z,16.40
2018-07-03T00:10:59.539Z,16.30
2018-07-03T00:13:29.991Z,16.30
2018-07-03T00:16:00.318Z,16.20
2018-07-03T00:18:31.156Z,16.20
2018-07-03T00:23:31.525Z,16.10
2018-07-03T00:26:07.386Z,16.10
2018-07-03T00:28:41.373Z,16.10
2018-07-03T00:31:11.605Z,16.10
2018-07-03T00:33:42.554Z,16.00
2018-07-03T00:36:13.762Z,16.00
2018-07-03T00:38:44.335Z,16.00
2018-07-03T00:41:15.146Z,15.90
2018-07-03T00:44:05.918Z,15.90
2018-07-03T00:46:36.198Z,15.90
2018-07-03T00:49:06.645Z,15.90
2018-07-03T00:51:36.892Z,15.80
2018-07-03T00:54:07.930Z,15.80
2018-07-03T00:56:39.006Z,15.80
2018-07-03T00:59:09.837Z,15.80
2018-07-03T01:01:40.164Z,15.70
2018-07-03T01:04:11.545Z,15.70
2018-07-03T01:06:42.854Z,15.70
2018-07-03T01:09:13.115Z,15.70
2018-07-03T01:11:44.563Z,15.70
2018-07-03T01:14:14.965Z,15.60
2018-07-03T01:16:45.937Z,15.60
2018-07-03T01:19:17.838Z,15.60
2018-07-03T01:21:49.957Z,15.60
2018-07-03T01:24:20.390Z,15.50
2018-07-03T01:26:52.309Z,15.50
2018-07-03T01:29:23.266Z,15.40
2018-07-03T01:31:53.997Z,15.50
2018-07-03T01:34:24.516Z,15.40
2018-07-03T01:36:55.119Z,15.40
2018-07-03T01:39:25.964Z,15.40
2018-07-03T01:41:57.618Z,15.30
2018-07-03T01:44:29.802Z,15.30
2018-07-03T01:47:02.238Z,15.30
2018-07-03T01:49:33.136Z,15.30
2018-07-03T01:52:04.006Z,15.20
2018-07-03T01:54:34.365Z,15.20
2018-07-03T01:57:04.718Z,15.20
2018-07-03T02:02:05.892Z,15.10
2018-07-03T02:04:36.309Z,15.10
2018-07-03T02:07:08.677Z,15.10
2018-07-03T02:12:10.618Z,15.00
2018-07-03T02:14:42.154Z,14.90
2018-07-03T02:17:13.001Z,14.90
2018-07-03T02:19:43.757Z,14.90
2018-07-03T02:22:15.350Z,14.80
2018-07-03T02:24:45.573Z,14.90
2018-07-03T02:27:18.892Z,14.80
2018-07-03T02:32:20.901Z,14.80
2018-07-03T02:34:53.473Z,14.80
2018-07-03T02:37:24.622Z,14.70
2018-07-03T02:39:55.038Z,14.80
2018-07-03T02:42:26.376Z,14.70
2018-07-03T02:44:57.601Z,14.80
2018-07-03T02:47:28.838Z,14.70
2018-07-03T02:50:00.444Z,14.70
2018-07-03T02:52:34.766Z,14.60
2018-07-03T02:55:05.256Z,14.60
2018-07-03T02:57:35.961Z,14.60
2018-07-03T03:00:07.059Z,14.60
2018-07-03T03:02:38.612Z,14.60
2018-07-03T03:05:09.622Z,14.60
2018-07-03T03:07:40.481Z,14.60
2018-07-03T03:10:11.870Z,14.60
2018-07-03T03:12:42.933Z,14.60
2018-07-03T03:15:14.785Z,14.60
2018-07-03T03:17:45.101Z,14.60
2018-07-03T03:20:16.383Z,14.60
2018-07-03T03:22:47.658Z,14.60
2018-07-03T03:25:18.288Z,14.60
2018-07-03T03:27:48.574Z,14.50
2018-07-03T03:30:18.958Z,14.60
2018-07-03T03:32:50.371Z,14.60
2018-07-03T03:35:20.715Z,14.60
2018-07-03T03:37:53.862Z,14.70
2018-07-03T03:40:25.501Z,14.70
2018-07-03T03:42:56.346Z,14.70
2018-07-03T03:45:27.726Z,14.80
2018-07-03T03:47:57.940Z,14.80
2018-07-03T03:50:28.312Z,14.90
2018-07-03T03:53:00.385Z,14.90
2018-07-03T03:55:30.597Z,15.00
2018-07-03T03:58:00.920Z,15.10
2018-07-03T04:00:32.455Z,15.10
2018-07-03T04:03:03.142Z,15.20
2018-07-03T04:05:33.342Z,15.30
2018-07-03T04:08:04.159Z,15.30
2018-07-03T04:10:36.723Z,15.40
2018-07-03T04:13:08.408Z,15.50
2018-07-03T04:15:38.673Z,15.60
2018-07-03T04:18:09.435Z,15.60
2018-07-03T04:20:40.077Z,15.70
2018-07-03T04:23:11.187Z,15.80
2018-07-03T04:25:41.980Z,15.80
2018-07-03T04:28:12.241Z,15.90
2018-07-03T04:30:42.625Z,16.00
2018-07-03T04:33:13.539Z,16.00
2018-07-03T04:35:44.326Z,16.00
2018-07-03T04:38:15.752Z,16.10
2018-07-03T04:40:46.179Z,16.20
2018-07-03T04:43:17.396Z,16.30
2018-07-03T04:45:47.760Z,16.40
2018-07-03T04:48:19.271Z,16.50
2018-07-03T04:50:54.820Z,16.60
2018-07-03T04:53:25.174Z,16.60
2018-07-03T04:55:57.422Z,16.60
2018-07-03T04:58:29.178Z,16.70
2018-07-03T05:01:01.200Z,16.70
2018-07-03T05:03:32.195Z,16.80
2018-07-03T05:06:03.255Z,16.80
2018-07-03T05:08:33.984Z,16.90
2018-07-03T05:11:04.843Z,17.10
2018-07-03T05:13:37.679Z,17.20
2018-07-03T05:16:09.830Z,17.30
2018-07-03T05:18:41.740Z,17.50
2018-07-03T05:21:15.165Z,17.60
2018-07-03T05:23:47.188Z,17.70
2018-07-03T05:26:18.970Z,17.90
2018-07-03T05:28:52.094Z,18.20
2018-07-03T05:31:22.562Z,18.40
2018-07-03T05:33:53.707Z,18.50
2018-07-03T05:36:25.845Z,18.60
2018-07-03T05:38:56.564Z,18.80
2018-07-03T05:41:27.053Z,19.00
2018-07-03T05:43:58.104Z,19.20
2018-07-03T05:46:29.159Z,19.30
2018-07-03T05:49:00.684Z,19.50
2018-07-03T05:51:34.123Z,19.60
2018-07-03T05:54:04.507Z,19.80
2018-07-03T05:56:37.404Z,19.90
2018-07-03T05:59:07.823Z,20.10
2018-07-03T06:01:38.942Z,20.10
2018-07-03T06:04:09.820Z,20.10
2018-07-03T06:06:40.229Z,20.40
2018-07-03T06:09:11.348Z,20.80
2018-07-03T06:11:43.897Z,20.80
2018-07-03T06:14:15.984Z,21.10
2018-07-03T06:16:47.373Z,20.90
2018-07-03T06:19:17.670Z,21.20
2018-07-03T06:21:49.945Z,21.20
2018-07-03T06:24:20.742Z,21.40
2018-07-03T06:26:50.919Z,21.40
2018-07-03T06:29:21.104Z,21.50
2018-07-03T06:31:51.319Z,21.60
2018-07-03T06:34:21.514Z,21.50
2018-07-03T06:36:52.300Z,22.00
2018-07-03T06:39:23.560Z,22.30
2018-07-03T06:41:54.308Z,22.30
2018-07-03T06:44:24.461Z,22.50
2018-07-03T06:49:24.533Z,22.70
2018-07-03T06:51:54.793Z,22.90
2018-07-03T06:54:25.481Z,23.10
2018-07-03T06:56:55.709Z,23.60
2018-07-03T06:59:26.093Z,23.70
2018-07-03T07:01:56.328Z,24.00
2018-07-03T07:04:27.153Z,24.10
2018-07-03T07:06:57.746Z,24.40
2018-07-03T07:09:28.001Z,24.60
2018-07-03T07:11:58.580Z,24.50
2018-07-03T07:14:28.882Z,24.30
2018-07-03T07:16:59.165Z,24.40
2018-07-03T07:19:29.733Z,24.60
2018-07-03T07:22:00.074Z,24.70
2018-07-03T07:24:30.837Z,24.90
2018-07-03T07:27:01.113Z,25.20
2018-07-03T07:29:31.386Z,25.20
2018-07-03T07:32:01.897Z,25.10
2018-07-03T07:34:34.348Z,25.30
2018-07-03T07:37:04.810Z,25.30
2018-07-03T07:39:35.607Z,25.10
2018-07-03T07:42:05.946Z,25.20
2018-07-03T07:44:36.188Z,25.40
2018-07-03T07:47:07.181Z,25.70
2018-07-03T07:49:37.436Z,25.90
2018-07-03T07:52:07.785Z,25.70
2018-07-03T07:54:38.399Z,25.70
2018-07-03T07:57:08.864Z,25.90
2018-07-03T07:59:39.364Z,26.40
2018-07-03T08:02:10.357Z,26.80
2018-07-03T08:04:40.620Z,27.10
2018-07-03T08:07:11.192Z,27.50
2018-07-03T08:09:41.533Z,27.60
2018-07-03T08:12:11.981Z,27.50
2018-07-03T08:14:43.179Z,27.60
2018-07-03T08:17:13.718Z,27.80
2018-07-03T08:19:45.062Z,28.00
2018-07-03T08:22:15.710Z,28.10
2018-07-03T08:24:46.078Z,27.80
2018-07-03T08:27:17.597Z,27.50
2018-07-03T08:29:48.279Z,27.10
2018-07-03T08:32:19.643Z,27.20
2018-07-03T08:34:51.178Z,27.50
2018-07-03T08:39:51.945Z,28.30
2018-07-03T08:42:23.037Z,28.50
2018-07-03T08:44:54.359Z,28.90
2018-07-03T08:47:26.206Z,28.80
2018-07-03T08:49:56.858Z,28.20
2018-07-03T08:52:28.910Z,28.10
2018-07-03T08:54:59.148Z,27.80
2018-07-03T08:57:30.841Z,28.30
2018-07-03T09:00:05.869Z,28.70
2018-07-03T09:02:41.936Z,28.20
2018-07-03T09:05:13.807Z,28.20
2018-07-03T09:07:45.180Z,28.50
2018-07-03T09:10:19.299Z,28.80
2018-07-03T09:12:50.269Z,29.10
2018-07-03T09:15:24.901Z,29.10
2018-07-03T09:17:55.956Z,29.80
2018-07-03T09:20:26.470Z,30.00
2018-07-03T09:22:58.565Z,30.30
2018-07-03T09:25:29.418Z,30.10
2018-07-03T09:28:00.472Z,30.20
2018-07-03T09:30:32.115Z,30.60
2018-07-03T09:33:05.844Z,31.10
2018-07-03T09:35:37.317Z,31.00
2018-07-03T09:38:11.841Z,30.70
2018-07-03T09:40:43.057Z,30.70
2018-07-03T09:43:14.252Z,30.50
2018-07-03T09:45:45.582Z,29.80
2018-07-03T09:48:16.399Z,30.20
2018-07-03T09:50:48.018Z,30.30
2018-07-03T09:53:22.723Z,30.50
2018-07-03T09:55:53.075Z,30.60
2018-07-03T09:58:25.150Z,30.60
2018-07-03T10:00:58.274Z,30.70
2018-07-03T10:03:29.507Z,30.80
2018-07-03T10:06:01.028Z,30.20
2018-07-03T10:08:32.844Z,30.40
2018-07-03T10:11:03.247Z,30.70
2018-07-03T10:13:34.180Z,30.90
2018-07-03T10:16:05.246Z,31.20
2018-07-03T10:18:35.617Z,30.30
2018-07-03T10:21:07.254Z,29.00
2018-07-03T10:23:38.319Z,28.00
2018-07-03T10:26:08.641Z,27.70
2018-07-03T10:28:39.083Z,28.20
2018-07-03T10:31:09.996Z,28.60
2018-07-03T10:33:41.061Z,29.00
2018-07-03T10:36:11.305Z,29.90
2018-07-03T10:38:41.622Z,30.40
2018-07-03T10:41:11.857Z,30.80
2018-07-03T10:43:48.482Z,31.20
2018-07-03T10:46:18.895Z,31.20
2018-07-03T10:48:55.556Z,31.30
2018-07-03T10:51:26.232Z,31.10
2018-07-03T10:53:57.056Z,31.10
2018-07-03T10:56:35.970Z,31.20
2018-07-03T10:59:07.752Z,31.20
2018-07-03T11:01:38.040Z,31.30
2018-07-03T11:04:11.912Z,31.70
2018-07-03T11:06:42.997Z,32.10
2018-07-03T11:09:13.488Z,31.50
2018-07-03T11:11:44.378Z,30.90
2018-07-03T11:14:15.330Z,31.00
2018-07-03T11:16:48.304Z,30.60
2018-07-03T11:19:19.141Z,30.40
2018-07-03T11:21:50.144Z,30.20
2018-07-03T11:24:20.672Z,29.10
2018-07-03T11:26:51.405Z,28.60
2018-07-03T11:29:24.185Z,29.00
2018-07-03T11:31:57.315Z,28.80
2018-07-03T11:34:28.364Z,29.00
2018-07-03T11:36:59.508Z,29.20
2018-07-03T11:39:29.826Z,28.90
2018-07-03T11:44:30.189Z,28.50
2018-07-03T11:47:02.472Z,28.00
2018-07-03T11:49:34.387Z,28.10
2018-07-03T11:52:05.061Z,28.80
2018-07-03T11:57:06.616Z,29.00
2018-07-03T11:59:39.625Z,28.70
2018-07-03T12:02:10.273Z,28.80
2018-07-03T12:04:40.494Z,28.50
2018-07-03T12:07:10.702Z,27.90
2018-07-03T12:09:40.889Z,27.70
2018-07-03T12:12:11.844Z,27.10
2018-07-03T12:14:42.381Z,27.40
2018-07-03T12:17:12.824Z,27.30
2018-07-03T12:19:43.086Z,27.20
2018-07-03T12:22:17.825Z,27.70
2018-07-03T12:24:48.057Z,27.50
2018-07-03T12:27:18.844Z,27.10
2018-07-03T12:29:49.897Z,26.90
2018-07-03T12:32:23.839Z,26.90
2018-07-03T12:34:54.158Z,27.10
2018-07-03T12:37:24.334Z,26.80
2018-07-03T12:39:54.552Z,27.00
2018-07-03T12:42:24.678Z,26.80
2018-07-03T12:44:55.179Z,26.70
2018-07-03T12:47:26.171Z,26.70
2018-07-03T12:49:56.413Z,26.90
2018-07-03T12:52:26.590Z,26.70
2018-07-03T12:54:56.847Z,26.40
2018-07-03T12:57:27.037Z,26.00
2018-07-03T12:59:58.280Z,25.80
2018-07-03T13:02:28.463Z,25.80
2018-07-03T13:04:58.830Z,25.80
2018-07-03T13:07:28.995Z,25.90
2018-07-03T13:09:59.182Z,25.90
2018-07-03T13:12:30.024Z,25.70
2018-07-03T13:15:00.374Z,25.50
2018-07-03T13:17:30.579Z,25.30
2018-07-03T13:20:00.802Z,25.10
2018-07-03T13:22:30.983Z,25.10
2018-07-03T13:25:01.385Z,24.90
2018-07-03T13:27:31.594Z,25.00
2018-07-03T13:30:02.163Z,25.00
2018-07-03T13:32:32.237Z,25.10
2018-07-03T13:35:04.321Z,25.10
2018-07-03T13:37:34.495Z,25.20
2018-07-03T13:40:05.436Z,25.20
2018-07-03T13:42:36.103Z,25.00
2018-07-03T13:45:06.437Z,25.10
2018-07-03T13:47:36.649Z,25.00
2018-07-03T13:50:07.143Z,25.00
2018-07-03T13:52:37.385Z,25.00
2018-07-03T13:57:37.460Z,24.70
2018-07-03T14:00:09.541Z,24.60
2018-07-03T14:02:39.763Z,24.60
2018-07-03T14:05:10.022Z,24.40
2018-07-03T14:07:40.238Z,24.30
2018-07-03T14:10:10.419Z,24.40
2018-07-03T14:12:40.619Z,24.30
2018-07-03T14:15:10.936Z,24.20
2018-07-03T14:17:41.114Z,24.10
2018-07-03T14:20:11.483Z,24.30
2018-07-03T14:22:41.673Z,24.30
2018-07-03T14:25:11.871Z,24.30
2018-07-03T14:30:12.118Z,24.10
2018-07-03T14:32:42.318Z,24.00
2018-07-03T14:35:13.184Z,23.90
2018-07-03T14:37:43.752Z,24.00
2018-07-03T14:40:14.254Z,24.10
2018-07-03T14:42:44.445Z,24.10
2018-07-03T14:45:14.653Z,24.00
2018-07-03T14:47:44.851Z,23.90
2018-07-03T14:50:15.134Z,23.70
2018-07-03T14:52:45.338Z,23.60
2018-07-03T14:55:15.510Z,23.50
2018-07-03T14:57:51.886Z,23.50
2018-07-03T15:19:56.473Z,23.40
2018-07-03T15:22:27.257Z,23.30
2018-07-03T15:24:59.104Z,22.70
2018-07-03T15:27:29.385Z,22.60
2018-07-03T15:32:29.307Z,22.50
2018-07-03T15:34:59.489Z,22.60
2018-07-03T15:37:29.879Z,22.50
2018-07-03T15:40:00.062Z,22.40
2018-07-03T15:42:30.199Z,22.30
2018-07-03T15:45:09.988Z,22.30
2018-07-03T15:47:40.134Z,22.30
2018-07-03T15:50:11.539Z,22.30
2018-07-03T15:52:41.690Z,22.30
2018-07-03T15:55:12.520Z,22.30
2018-07-03T15:57:43.436Z,22.30
2018-07-03T16:00:15.902Z,22.30
2018-07-03T16:03:06.597Z,22.20
2018-07-03T16:05:58.872Z,22.10
2018-07-03T16:08:47.483Z,22.10
2018-07-03T16:11:18.237Z,22.00
2018-07-03T16:13:48.467Z,22.00
2018-07-03T16:16:19.406Z,21.90
2018-07-03T16:18:50.565Z,21.80
2018-07-03T16:21:20.695Z,21.80
2018-07-03T16:23:50.867Z,21.70
2018-07-03T16:26:21.914Z,21.60
2018-07-03T16:28:53.496Z,21.60
2018-07-03T16:31:24.572Z,21.60
2018-07-03T16:33:55.795Z,21.50
2018-07-03T16:36:25.956Z,21.40
2018-07-03T16:38:56.097Z,21.40
2018-07-03T16:41:26.325Z,21.30
2018-07-03T16:43:56.757Z,21.40
2018-07-03T16:46:27.884Z,21.30
2018-07-03T16:48:58.368Z,21.30
2018-07-03T16:51:29.987Z,21.20
2018-07-03T16:54:00.160Z,21.20
2018-07-03T16:56:30.371Z,21.20
2018-07-03T16:59:00.614Z,21.10
2018-07-03T17:01:31.019Z,21.00
2018-07-03T17:04:01.209Z,21.00
2018-07-03T17:06:32.369Z,21.00
2018-07-03T17:09:02.649Z,21.00
2018-07-03T17:11:35.332Z,20.90
2018-07-03T17:14:07.858Z,20.80
2018-07-03T17:16:38.233Z,20.80
2018-07-03T17:19:13.702Z,20.80
2018-07-03T17:21:43.940Z,20.70
2018-07-03T17:24:14.196Z,20.60
2018-07-03T17:26:44.419Z,20.60
2018-07-03T17:29:14.648Z,20.60
2018-07-03T17:31:45.321Z,20.60
2018-07-03T17:34:15.888Z,20.50
2018-07-03T17:36:46.193Z,20.50
2018-07-03T17:39:18.339Z,20.40
2018-07-03T17:42:06.390Z,20.30
2018-07-03T17:44:52.744Z,20.20
2018-07-03T17:47:23.428Z,20.10
2018-07-03T17:49:53.701Z,20.20
2018-07-03T17:52:23.860Z,20.20
2018-07-03T17:54:53.987Z,20.10
2018-07-03T17:57:24.181Z,19.90
2018-07-03T17:59:56.411Z,19.80
2018-07-03T18:02:26.566Z,20.00
2018-07-03T18:04:56.911Z,20.10
2018-07-03T18:07:27.063Z,20.00
2018-07-03T18:09:58.137Z,20.00
2018-07-03T18:12:28.363Z,20.00
2018-07-03T18:14:58.584Z,19.90
2018-07-03T18:17:28.721Z,19.90
2018-07-03T18:19:58.905Z,19.70
2018-07-03T18:22:29.040Z,19.70
2018-07-03T18:24:59.459Z,19.70
2018-07-03T18:27:29.611Z,19.70
2018-07-03T18:29:59.754Z,19.60
2018-07-03T18:32:30.065Z,19.60
2018-07-03T18:35:00.276Z,19.60
2018-07-03T18:37:30.464Z,19.60
2018-07-03T18:40:00.606Z,19.60
2018-07-03T18:42:31.013Z,19.60
2018-07-03T18:45:01.314Z,19.50
2018-07-03T18:47:31.530Z,19.40
2018-07-03T18:50:01.656Z,19.40
2018-07-03T18:52:31.829Z,19.40
2018-07-03T18:55:02.025Z,19.30
2018-07-03T18:57:32.787Z,19.20
2018-07-03T19:00:03.478Z,19.20
2018-07-03T19:02:36.538Z,19.20
2018-07-03T19:05:06.772Z,19.20
2018-07-03T19:07:37.656Z,19.00
2018-07-03T19:10:08.019Z,18.90
2018-07-03T19:12:39.903Z,18.80
2018-07-03T19:15:10.725Z,18.80
2018-07-03T19:17:44.950Z,18.70
2018-07-03T19:20:18.402Z,18.70
2018-07-03T19:22:48.658Z,18.60
2018-07-03T19:25:18.886Z,18.50
2018-07-03T19:27:49.131Z,18.40
2018-07-03T19:30:19.474Z,18.40
2018-07-03T19:32:54.474Z,18.30
2018-07-03T19:35:24.954Z,18.30
2018-07-03T19:37:55.256Z,18.30
2018-07-03T19:40:26.401Z,18.20
2018-07-03T19:43:34.521Z,18.10
2018-07-03T19:46:06.922Z,18.00
2018-07-03T19:48:37.343Z,18.00
2018-07-03T19:51:08.869Z,17.90
2018-07-03T19:53:41.139Z,17.90
2018-07-03T19:56:12.575Z,17.90
2018-07-03T19:58:46.121Z,17.90
2018-07-03T20:01:16.391Z,17.90
2018-07-03T20:03:46.608Z,18.00
2018-07-03T20:06:17.480Z,18.00
2018-07-03T20:08:48.664Z,17.90
2018-07-03T20:11:20.090Z,17.90
2018-07-03T20:13:50.549Z,17.80
2018-07-03T20:16:21.608Z,17.80
2018-07-03T20:18:51.909Z,17.80
2018-07-03T20:21:23.012Z,17.80
2018-07-03T20:23:55.035Z,17.70
2018-07-03T20:26:26.160Z,17.60
2018-07-03T20:28:58.150Z,17.60
2018-07-03T20:31:29.521Z,17.50
2018-07-03T20:34:02.345Z,17.50
2018-07-03T20:36:34.739Z,17.50
2018-07-03T20:39:09.948Z,17.40
2018-07-03T20:41:41.762Z,17.40
2018-07-03T20:44:12.286Z,17.40
2018-07-03T20:46:44.624Z,17.30
2018-07-03T20:51:49.372Z,17.30
2018-07-03T20:54:21.184Z,17.30
2018-07-03T20:56:51.357Z,17.20
2018-07-03T20:59:21.525Z,17.20
2018-07-03T21:01:51.665Z,17.20
2018-07-03T21:04:22.016Z,17.10
2018-07-03T21:06:52.211Z,17.10
2018-07-03T21:09:22.594Z,17.10
2018-07-03T21:11:53.961Z,17.00
2018-07-03T21:14:24.211Z,16.90
2018-07-03T21:16:54.470Z,17.00
2018-07-03T21:19:25.037Z,16.90
2018-07-03T21:21:56.045Z,16.90
2018-07-03T21:24:27.431Z,16.80
2018-07-03T21:26:57.857Z,16.80
2018-07-03T21:29:28.051Z,16.70
2018-07-03T21:31:58.294Z,16.60
2018-07-03T21:34:30.994Z,16.60
2018-07-03T21:37:01.197Z,16.60
2018-07-03T21:39:31.397Z,16.60
2018-07-03T21:42:02.221Z,16.60
2018-07-03T21:44:35.409Z,16.60
2018-07-03T21:47:09.187Z,16.50
2018-07-03T21:49:41.493Z,16.50
2018-07-03T21:52:13.204Z,16.40
2018-07-03T21:54:46.361Z,16.40
2018-07-03T21:57:20.362Z,16.40
2018-07-03T21:59:53.441Z,16.40
2018-07-03T22:02:26.112Z,16.30
2018-07-03T22:04:58.702Z,16.30
2018-07-03T22:07:33.565Z,16.30
2018-07-03T22:10:04.323Z,16.30
2018-07-03T22:12:36.028Z,16.20
2018-07-03T22:15:07.302Z,16.20
2018-07-03T22:17:37.595Z,16.20
2018-07-03T22:20:07.830Z,16.10
2018-07-03T22:22:40.345Z,16.10
2018-07-03T22:25:12.067Z,16.10
2018-07-03T22:27:43.515Z,16.10
2018-07-03T22:30:17.929Z,16.00
2018-07-03T22:32:50.691Z,16.00
2018-07-03T22:35:22.979Z,15.90
2018-07-03T22:38:03.578Z,15.90
2018-07-03T22:40:37.154Z,15.90
2018-07-03T22:43:08.493Z,15.80
2018-07-03T22:45:39.762Z,15.80
2018-07-03T22:48:16.980Z,15.80
2018-07-03T22:50:47.261Z,15.80
2018-07-03T22:53:26.653Z,15.80
2018-07-03T22:56:00.056Z,15.70
2018-07-03T22:58:30.372Z,15.70
2018-07-03T23:01:01.242Z,15.70
2018-07-03T23:03:33.805Z,15.70
2018-07-03T23:06:04.972Z,15.60
2018-07-03T23:08:40.356Z,15.60
2018-07-03T23:11:13.508Z,15.60
2018-07-03T23:16:23.000Z,15.50
2018-07-03T23:18:54.293Z,15.50
2018-07-03T23:21:27.659Z,15.40
2018-07-03T23:23:59.479Z,15.40
2018-07-03T23:26:29.888Z,15.40
2018-07-03T23:29:00.917Z,15.30
2018-07-03T23:31:32.140Z,15.30
2018-07-03T23:34:02.966Z,15.30
2018-07-03T23:36:35.891Z,15.30
2018-07-03T23:39:11.326Z,15.30
2018-07-03T23:41:47.158Z,15.20
2018-07-03T23:44:21.249Z,15.20
2018-07-03T23:47:10.263Z,15.20
2018-07-03T23:50:03.425Z,15.20
2018-07-03T23:52:51.807Z,15.20
2018-07-03T23:55:43.032Z,15.20
2018-07-03T23:58:31.859Z,15.10
